Time;durP1;ratioP1;P1;durP2;ratioP2;P2;SDS_P1;SDS_P2;PMS_P1;PMS_P2;Temp;Humidity;BMP_temperature;BMP_pressure;BME280_temperature;BME280_humidity;BME280_pressure;Samples;Min_cycle;Max_cycle;Signal;HPM_P1;HPM_P2
2023/04/29 00:01:47;;;;;;;13.70;6.85;;;;;;;14.78;48.14;99451.03;4494046;31;34882;-61
2023/04/29 00:04:15;;;;;;;18.55;6.78;;;;;;;15.41;46.83;99451.09;4494992;31;33706;-60
2023/04/29 00:06:43;;;;;;;12.05;4.43;;;;;;;14.78;48.51;99459.09;4492000;31;33631;-62
2023/04/29 00:09:10;;;;;;;11.38;5.37;;;;;;;15.37;46.60;99449.69;4486375;31;33948;-61
2023/04/29 00:11:38;;;;;;;7.32;3.83;;;;;;;15.51;46.69;99440.22;4488710;31;33796;-61
2023/04/29 00:14:06;;;;;;;9.55;4.90;;;;;;;15.58;46.87;99442.16;4496051;31;33492;-61
2023/04/29 00:16:33;;;;;;;12.50;5.97;;;;;;;15.63;47.03;99444.37;4495918;31;33392;-61
2023/04/29 00:19:01;;;;;;;7.50;4.78;;;;;;;15.77;46.59;99441.19;4499120;31;33888;-61
2023/04/29 00:21:29;;;;;;;9.93;4.53;;;;;;;15.84;46.27;99436.84;4485951;31;34761;-61
2023/04/29 00:23:56;;;;;;;9.40;4.87;;;;;;;15.44;47.57;99440.00;4492424;31;33476;-61
2023/04/29 00:26:24;;;;;;;8.23;3.85;;;;;;;15.56;47.21;99435.22;4492431;31;34003;-61
2023/04/29 00:28:52;;;;;;;9.43;5.12;;;;;;;15.58;47.36;99439.44;4492341;31;34353;-61
2023/04/29 00:31:20;;;;;;;9.00;4.55;;;;;;;15.70;46.95;99428.47;4495141;31;33860;-61
2023/04/29 00:33:48;;;;;;;27.65;4.95;;;;;;;15.36;47.72;99431.81;4500126;31;33404;-61
2023/04/29 00:36:15;;;;;;;14.63;6.62;;;;;;;15.80;46.99;99431.94;4486086;31;33696;-61
2023/04/29 00:38:43;;;;;;;9.65;4.87;;;;;;;15.69;47.17;99434.84;4498655;31;34970;-62
2023/04/29 00:41:11;;;;;;;12.15;4.80;;;;;;;16.01;46.51;99443.22;4489518;31;34928;-60
2023/04/29 00:43:38;;;;;;;9.63;4.68;;;;;;;16.19;46.03;99450.44;4497548;31;34550;-61
2023/04/29 00:46:06;;;;;;;13.57;7.15;;;;;;;16.25;46.03;99447.13;4493227;31;33496;-61
2023/04/29 00:48:33;;;;;;;26.52;6.90;;;;;;;16.33;44.96;99452.56;4488530;31;34038;-61
2023/04/29 00:51:02;;;;;;;17.62;5.28;;;;;;;16.35;44.44;99445.16;4488650;31;33943;-61
2023/04/29 00:53:30;;;;;;;10.60;4.72;;;;;;;16.52;43.56;99441.53;4488694;31;33541;-61
2023/04/29 00:55:59;;;;;;;15.05;4.93;;;;;;;16.31;44.50;99449.19;4487884;31;33571;-61
2023/04/29 00:58:32;;;;;;;12.65;5.30;;;;;;;16.38;44.40;99452.94;4484315;31;34957;-61
2023/04/29 01:01:00;;;;;;;13.85;4.95;;;;;;;16.39;44.69;99446.53;4490795;31;34394;-61
2023/04/29 01:03:29;;;;;;;10.23;5.85;;;;;;;16.47;44.41;99440.34;4496742;31;32170;-61
2023/04/29 01:06:23;;;;;;;14.18;5.05;;;;;;;16.25;45.32;99439.88;4497429;31;33906;-60
2023/04/29 01:09:00;;;;;;;20.12;5.97;;;;;;;16.27;45.04;99442.38;4497597;31;35000;-61
2023/04/29 01:11:35;;;;;;;8.27;4.28;;;;;;;16.35;45.23;99439.75;4487803;31;33888;-60
2023/04/29 01:14:03;;;;;;;8.68;4.53;;;;;;;16.19;45.83;99445.06;4490597;31;33444;-61
2023/04/29 01:16:48;;;;;;;6.50;3.97;;;;;;;16.48;45.04;99442.03;4495964;31;34944;-60
2023/04/29 01:19:33;;;;;;;9.80;4.60;;;;;;;16.17;45.25;99434.38;4483909;31;31991;-61
2023/04/29 01:22:00;;;;;;;10.30;4.55;;;;;;;16.50;45.26;99432.75;4498455;31;34124;-60
2023/04/29 01:24:28;;;;;;;7.68;3.50;;;;;;;16.27;45.97;99440.53;4498548;31;33597;-60
2023/04/29 01:27:07;;;;;;;9.93;5.80;;;;;;;16.37;46.17;99436.87;4494935;31;32518;-61
2023/04/29 01:29:50;;;;;;;6.00;3.58;;;;;;;16.20;47.22;99436.78;4493207;31;33695;-61
2023/04/29 01:32:29;;;;;;;10.70;4.60;;;;;;;16.22;47.49;99442.03;4496636;31;35172;-62
2023/04/29 01:35:04;;;;;;;7.32;4.40;;;;;;;15.96;48.35;99418.56;4497417;31;33552;-61
2023/04/29 01:37:51;;;;;;;8.43;4.85;;;;;;;15.88;49.19;99423.03;4496767;31;34923;-61
2023/04/29 01:40:25;;;;;;;9.50;4.37;;;;;;;16.07;48.88;99423.69;4490285;31;32889;-61
2023/04/29 01:42:53;;;;;;;7.10;3.67;;;;;;;16.06;48.96;99421.16;4489629;31;33950;-62
2023/04/29 01:45:22;;;;;;;9.23;4.47;;;;;;;16.00;48.62;99419.94;4492208;31;32612;-60
2023/04/29 01:47:52;;;;;;;9.48;4.00;;;;;;;16.15;48.17;99419.38;4478171;31;33662;-61
2023/04/29 01:50:20;;;;;;;10.35;5.05;;;;;;;15.88;48.59;99414.94;4481549;31;34601;-60
2023/04/29 01:52:48;;;;;;;5.82;3.83;;;;;;;15.90;48.26;99418.34;4491188;31;33948;-61
2023/04/29 01:55:15;;;;;;;5.20;3.17;;;;;;;15.74;48.42;99416.34;4486832;31;34764;-60
2023/04/29 01:57:44;;;;;;;7.40;3.60;;;;;;;15.81;48.36;99415.56;4488281;31;34691;-60
2023/04/29 02:00:12;;;;;;;5.53;3.20;;;;;;;15.70;48.31;99423.06;4494769;31;32865;-60
2023/04/29 02:02:41;;;;;;;5.80;3.70;;;;;;;15.50;48.35;99423.19;4488865;31;35211;-61
2023/04/29 02:05:08;;;;;;;9.02;4.12;;;;;;;15.55;48.27;99415.47;4491970;31;34695;-60
2023/04/29 02:07:38;;;;;;;8.13;4.50;;;;;;;15.83;47.46;99423.53;4490043;31;34427;-60
2023/04/29 02:10:07;;;;;;;15.48;4.00;;;;;;;15.50;47.84;99425.88;4487690;31;33831;-60
2023/04/29 02:12:35;;;;;;;7.20;3.00;;;;;;;15.88;47.24;99414.94;4484164;31;33187;-60
2023/04/29 02:15:03;;;;;;;12.07;3.42;;;;;;;15.93;46.85;99418.03;4494370;31;34841;-61
2023/04/29 02:17:32;;;;;;;13.50;4.93;;;;;;;15.99;46.75;99422.81;4497274;31;34950;-60
2023/04/29 02:20:00;;;;;;;14.02;3.85;;;;;;;15.99;46.60;99420.09;4490416;31;35320;-60
2023/04/29 02:22:28;;;;;;;7.72;3.55;;;;;;;15.74;46.90;99427.16;4491274;31;35404;-60
2023/04/29 02:24:57;;;;;;;9.52;4.45;;;;;;;15.84;46.70;99414.41;4488524;31;34722;-60
2023/04/29 02:27:25;;;;;;;14.23;4.18;;;;;;;15.67;47.10;99418.00;4483121;31;33870;-60
2023/04/29 02:29:53;;;;;;;8.00;5.07;;;;;;;14.85;48.99;99414.41;4490830;31;34002;-61
2023/04/29 02:32:21;;;;;;;5.95;3.55;;;;;;;15.77;47.12;99407.97;4494642;31;35419;-60
2023/04/29 02:34:49;;;;;;;4.62;2.83;;;;;;;15.76;47.10;99406.25;4487938;31;33422;-59
2023/04/29 02:37:16;;;;;;;8.40;3.85;;;;;;;15.70;47.10;99396.09;4486940;31;34661;-60
2023/04/29 02:39:45;;;;;;;11.20;3.72;;;;;;;15.48;47.89;99397.38;4495008;31;33986;-60
2023/04/29 02:42:13;;;;;;;16.48;3.75;;;;;;;15.67;47.05;99393.72;4490867;31;32883;-60
2023/04/29 02:44:41;;;;;;;10.85;4.50;;;;;;;15.54;47.10;99400.31;4493877;31;34100;-59
2023/04/29 02:47:08;;;;;;;5.25;3.60;;;;;;;15.25;47.40;99399.66;4489019;31;34767;-60
2023/04/29 02:49:37;;;;;;;13.57;4.30;;;;;;;14.94;48.53;99402.72;4493472;31;34060;-60
2023/04/29 02:52:04;;;;;;;8.38;4.00;;;;;;;14.88;49.22;99389.84;4495759;31;34047;-59
2023/04/29 02:54:32;;;;;;;8.45;3.90;;;;;;;14.73;49.84;99396.72;4484450;31;33205;-60
2023/04/29 02:57:00;;;;;;;8.07;3.60;;;;;;;14.76;49.76;99399.13;4484564;31;34603;-59
2023/04/29 02:59:27;;;;;;;8.20;3.95;;;;;;;14.65;50.48;99394.78;4487841;31;34013;-60
2023/04/29 03:01:54;;;;;;;7.68;4.10;;;;;;;14.07;50.74;99390.44;4491231;31;34546;-60
2023/04/29 03:04:22;;;;;;;11.43;4.07;;;;;;;14.61;50.10;99401.50;4492153;31;34865;-61
2023/04/29 03:06:50;;;;;;;17.70;5.40;;;;;;;15.07;47.74;99405.91;4492254;31;33850;-62
2023/04/29 03:09:17;;;;;;;11.40;2.53;;;;;;;14.67;48.94;99403.59;4486482;31;32759;-61
2023/04/29 03:11:45;;;;;;;7.47;4.45;;;;;;;15.10;47.76;99408.28;4488605;31;34535;-61
2023/04/29 03:14:13;;;;;;;17.80;4.87;;;;;;;14.00;49.93;99408.16;4488911;31;33344;-61
2023/04/29 03:16:41;;;;;;;9.95;3.72;;;;;;;14.52;49.00;99407.75;4485312;31;33693;-62
2023/04/29 03:19:09;;;;;;;7.78;3.47;;;;;;;15.23;47.08;99410.62;4486215;31;34028;-61
2023/04/29 03:21:36;;;;;;;12.73;5.47;;;;;;;14.63;47.84;99410.25;4495691;31;34044;-61
2023/04/29 03:24:04;;;;;;;14.13;5.15;;;;;;;15.02;46.90;99413.56;4494540;31;33738;-61
2023/04/29 03:26:32;;;;;;;10.60;5.97;;;;;;;14.89;47.37;99410.41;4491375;31;33791;-61
2023/04/29 03:29:00;;;;;;;13.10;4.28;;;;;;;15.55;45.80;99410.09;4488145;31;33582;-61
2023/04/29 03:31:27;;;;;;;13.10;5.68;;;;;;;15.50;45.70;99412.38;4493527;31;33968;-61
2023/04/29 03:33:55;;;;;;;12.18;5.75;;;;;;;15.03;46.33;99409.06;4493153;31;33639;-62
2023/04/29 03:36:23;;;;;;;15.20;5.12;;;;;;;15.08;46.65;99407.59;4483132;31;33376;-61
2023/04/29 03:38:50;;;;;;;9.00;4.65;;;;;;;15.46;45.86;99410.16;4488304;31;33970;-61
2023/04/29 03:41:18;;;;;;;19.55;6.03;;;;;;;15.66;44.98;99410.84;4484566;31;34365;-61
2023/04/29 03:43:46;;;;;;;11.75;5.70;;;;;;;15.74;44.55;99419.91;4480610;31;34755;-61
2023/04/29 03:46:14;;;;;;;10.05;5.40;;;;;;;15.65;44.95;99428.87;4486383;31;34969;-62
2023/04/29 03:48:42;;;;;;;10.82;5.05;;;;;;;15.79;44.24;99433.78;4488926;31;35410;-61
2023/04/29 03:51:09;;;;;;;7.97;4.18;;;;;;;15.77;44.77;99425.00;4484168;31;34072;-61
2023/04/29 03:53:37;;;;;;;14.40;4.78;;;;;;;15.94;44.32;99434.06;4488730;31;33566;-61
2023/04/29 03:56:05;;;;;;;13.23;5.00;;;;;;;16.02;43.95;99436.00;4490473;31;35421;-60
2023/04/29 03:58:33;;;;;;;5.85;3.20;;;;;;;15.88;44.14;99431.97;4488184;31;34570;-61
2023/04/29 04:01:01;;;;;;;24.42;5.37;;;;;;;15.95;44.13;99429.50;4486508;31;34119;-60
2023/04/29 04:03:31;;;;;;;11.35;5.53;;;;;;;15.82;44.27;99433.44;4486534;31;33684;-61
2023/04/29 04:05:59;;;;;;;18.50;5.25;;;;;;;15.86;44.26;99438.53;4489555;31;35424;-65
2023/04/29 04:08:27;;;;;;;9.90;5.32;;;;;;;15.81;44.18;99436.31;4483169;31;33879;-60
2023/04/29 04:11:01;;;;;;;9.85;4.37;;;;;;;15.92;44.04;99432.50;4486026;31;32611;-63
2023/04/29 04:13:29;;;;;;;6.70;3.80;;;;;;;15.91;44.07;99434.38;4483778;31;34448;-60
2023/04/29 04:15:57;;;;;;;9.20;4.72;;;;;;;15.92;43.69;99429.81;4484608;31;32753;-61
2023/04/29 04:18:25;;;;;;;12.50;4.10;;;;;;;15.85;43.94;99429.59;4490353;31;34110;-61
2023/04/29 04:20:53;;;;;;;7.68;3.70;;;;;;;15.77;44.08;99426.84;4485511;31;110415;-60
2023/04/29 04:23:20;;;;;;;11.95;5.43;;;;;;;15.78;44.03;99436.63;4491729;31;34959;-60
2023/04/29 04:25:48;;;;;;;19.08;5.07;;;;;;;15.90;44.08;99434.53;4493628;31;33629;-60
2023/04/29 04:28:16;;;;;;;9.80;4.43;;;;;;;15.86;44.30;99443.94;4487755;31;33645;-61
2023/04/29 04:30:45;;;;;;;20.10;6.18;;;;;;;15.85;43.95;99435.00;4494132;31;32870;-60
2023/04/29 04:33:12;;;;;;;9.68;4.57;;;;;;;15.76;44.21;99442.19;4493352;31;34219;-62
2023/04/29 04:35:42;;;;;;;11.93;4.45;;;;;;;15.74;44.26;99444.19;4488009;31;32823;-61
2023/04/29 04:38:14;;;;;;;14.95;5.10;;;;;;;15.87;43.93;99451.03;4493987;31;32938;-61
2023/04/29 04:40:41;;;;;;;22.02;5.75;;;;;;;15.79;43.79;99449.97;4490804;31;34217;-61
2023/04/29 04:43:10;;;;;;;17.10;5.70;;;;;;;15.80;44.03;99443.56;4485523;31;33419;-62
2023/04/29 04:45:39;;;;;;;12.98;4.95;;;;;;;15.59;44.44;99438.44;4488032;31;32654;-61
2023/04/29 04:48:06;;;;;;;9.45;4.37;;;;;;;15.65;44.69;99444.22;4483618;31;34176;-61
2023/04/29 04:50:35;;;;;;;13.62;5.87;;;;;;;15.51;45.51;99440.22;4489413;31;35381;-61
2023/04/29 04:53:02;;;;;;;9.23;4.65;;;;;;;15.64;45.27;99438.00;4481728;31;34748;-61
2023/04/29 04:55:32;;;;;;;11.50;5.93;;;;;;;15.57;45.68;99437.75;4488336;31;33930;-63
2023/04/29 04:58:00;;;;;;;14.07;6.37;;;;;;;15.36;46.43;99424.56;4490150;31;32968;-62
2023/04/29 05:00:28;;;;;;;9.43;4.07;;;;;;;15.75;45.57;99424.28;4486974;31;34763;-61
2023/04/29 05:02:55;;;;;;;8.88;4.03;;;;;;;15.65;45.27;99414.56;4482919;31;32335;-61
2023/04/29 05:05:23;;;;;;;10.32;4.70;;;;;;;15.58;45.36;99431.34;4492756;31;33510;-60
2023/04/29 05:07:51;;;;;;;9.40;5.30;;;;;;;15.58;45.54;99425.97;4491711;31;35835;-62
2023/04/29 05:10:19;;;;;;;8.95;3.97;;;;;;;15.28;45.81;99429.00;4487001;31;34054;-61
2023/04/29 05:12:47;;;;;;;10.63;3.85;;;;;;;15.27;45.59;99430.03;4485383;31;33267;-61
2023/04/29 05:15:15;;;;;;;6.28;3.53;;;;;;;15.35;45.38;99427.44;4487180;31;33910;-62
2023/04/29 05:17:43;;;;;;;11.73;3.55;;;;;;;15.43;44.97;99427.50;4494516;31;34184;-63
2023/04/29 05:20:11;;;;;;;3.78;2.75;;;;;;;15.37;44.84;99428.94;4494515;31;35054;-63
2023/04/29 05:22:38;;;;;;;7.75;2.55;;;;;;;15.44;45.14;99440.00;4493486;31;33473;-60
2023/04/29 05:25:07;;;;;;;7.32;3.90;;;;;;;15.40;45.19;99432.34;4493445;31;34650;-61
2023/04/29 05:27:35;;;;;;;8.95;4.50;;;;;;;15.36;45.19;99443.44;4490744;31;34029;-61
2023/04/29 05:30:03;;;;;;;7.45;4.55;;;;;;;15.38;45.08;99435.22;4491273;31;34160;-63
2023/04/29 05:32:32;;;;;;;9.35;5.20;;;;;;;15.45;45.21;99438.16;4486422;31;33729;-60
2023/04/29 05:35:00;;;;;;;15.88;4.20;;;;;;;15.06;46.35;99444.63;4484791;31;35141;-65
2023/04/29 05:37:30;;;;;;;8.95;4.85;;;;;;;15.22;46.14;99452.06;4482516;31;33690;-62
2023/04/29 05:40:00;;;;;;;10.35;4.22;;;;;;;15.48;45.70;99437.84;4487560;31;34835;-63
2023/04/29 05:42:29;;;;;;;9.23;3.67;;;;;;;15.40;45.52;99446.69;4485426;31;33704;-62
2023/04/29 05:44:56;;;;;;;6.93;3.33;;;;;;;15.57;45.38;99447.72;4483221;31;33764;-63
2023/04/29 05:47:24;;;;;;;10.57;4.80;;;;;;;15.53;45.40;99449.84;4491796;31;34000;-62
2023/04/29 05:49:51;;;;;;;24.15;4.70;;;;;;;15.64;45.85;99446.09;4498701;31;33910;-62
2023/04/29 05:52:19;;;;;;;7.47;3.33;;;;;;;15.56;45.20;99454.94;4488895;31;32229;-62
2023/04/29 05:54:48;;;;;;;7.72;3.75;;;;;;;15.23;45.86;99448.34;4496156;31;33670;-62
2023/04/29 05:57:16;;;;;;;12.73;3.50;;;;;;;15.43;46.41;99457.16;4496630;31;32918;-63
2023/04/29 05:59:43;;;;;;;8.63;4.05;;;;;;;15.81;44.80;99461.44;4495600;31;33708;-63
2023/04/29 06:02:11;;;;;;;10.75;3.55;;;;;;;15.52;44.85;99464.34;4490928;31;32049;-61
2023/04/29 06:04:42;;;;;;;6.57;3.60;;;;;;;15.55;44.39;99461.34;4486720;31;33871;-61
2023/04/29 06:07:11;;;;;;;14.18;4.93;;;;;;;15.91;43.94;99463.22;4496499;31;34258;-62
2023/04/29 06:09:39;;;;;;;7.55;3.80;;;;;;;16.05;43.72;99457.25;4486139;31;34201;-63
2023/04/29 06:12:06;;;;;;;6.93;3.42;;;;;;;16.27;42.86;99461.28;4487059;31;33591;-62
2023/04/29 06:14:34;;;;;;;6.05;3.15;;;;;;;15.95;43.25;99446.53;4486648;31;34970;-61
2023/04/29 06:17:02;;;;;;;11.32;2.83;;;;;;;16.07;42.32;99449.84;4488575;31;33846;-63
2023/04/29 06:19:32;;;;;;;6.53;3.80;;;;;;;15.64;42.83;99447.94;4492145;31;34384;-62
2023/04/29 06:21:59;;;;;;;6.05;3.15;;;;;;;16.28;42.29;99446.81;4488954;31;33110;-62
2023/04/29 06:24:27;;;;;;;7.47;2.97;;;;;;;16.25;41.41;99447.13;4489863;31;33773;-62
2023/04/29 06:26:56;;;;;;;6.18;3.55;;;;;;;15.32;42.71;99454.69;4491943;31;33869;-61
2023/04/29 06:29:25;;;;;;;8.88;3.60;;;;;;;15.66;42.04;99454.00;4483914;31;35228;-61
2023/04/29 06:31:53;;;;;;;5.90;3.58;;;;;;;15.99;41.66;99445.25;4487732;31;32332;-61
2023/04/29 06:34:21;;;;;;;5.80;3.45;;;;;;;15.75;41.93;99453.13;4487160;31;34090;-61
2023/04/29 06:36:49;;;;;;;5.78;3.20;;;;;;;15.63;42.67;99459.72;4484340;31;34552;-61
2023/04/29 06:39:17;;;;;;;6.18;3.35;;;;;;;15.58;42.32;99455.62;4491485;31;32758;-62
2023/04/29 06:41:45;;;;;;;8.40;4.40;;;;;;;15.22;42.38;99460.16;4488780;31;35185;-61
2023/04/29 06:44:13;;;;;;;5.35;3.28;;;;;;;14.94;43.25;99456.62;4488652;31;33711;-62
2023/04/29 06:46:40;;;;;;;5.45;2.97;;;;;;;15.55;42.43;99458.63;4487703;31;33978;-61
2023/04/29 06:49:08;;;;;;;5.32;3.05;;;;;;;15.63;42.95;99454.31;4484255;31;35254;-62
2023/04/29 06:51:36;;;;;;;5.18;2.75;;;;;;;15.60;42.38;99450.94;4492937;31;32325;-62
2023/04/29 06:54:04;;;;;;;5.05;3.50;;;;;;;14.92;44.08;99458.59;4494791;31;33894;-62
2023/04/29 06:56:32;;;;;;;4.72;2.90;;;;;;;15.72;42.85;99454.28;4495697;31;33655;-62
2023/04/29 06:58:59;;;;;;;9.73;3.08;;;;;;;15.97;42.93;99457.19;4483356;31;33968;-61
2023/04/29 07:01:27;;;;;;;4.05;3.00;;;;;;;15.27;43.94;99460.53;4490270;31;34421;-61
2023/04/29 07:03:55;;;;;;;11.35;3.90;;;;;;;15.72;43.40;99456.97;4486511;31;33803;-62
2023/04/29 07:06:23;;;;;;;5.80;2.95;;;;;;;15.42;43.80;99460.03;4487296;31;33769;-63
2023/04/29 07:08:51;;;;;;;7.65;3.95;;;;;;;15.69;43.56;99459.97;4488521;31;34176;-62
2023/04/29 07:11:25;;;;;;;5.18;2.90;;;;;;;15.56;43.78;99456.78;4483904;31;33230;-62
2023/04/29 07:13:53;;;;;;;4.12;2.87;;;;;;;15.72;43.89;99464.22;4495731;31;33220;-62
2023/04/29 07:16:21;;;;;;;8.13;4.00;;;;;;;16.11;42.81;99463.88;4491918;31;35178;-62
2023/04/29 07:18:48;;;;;;;6.18;2.95;;;;;;;15.40;43.07;99460.16;4490616;31;35272;-63
2023/04/29 07:21:16;;;;;;;5.43;3.58;;;;;;;15.77;42.96;99467.31;4486625;31;33505;-62
2023/04/29 07:23:43;;;;;;;8.10;4.47;;;;;;;16.01;42.60;99462.09;4491098;31;32064;-61
2023/04/29 07:26:15;;;;;;;6.78;3.95;;;;;;;15.98;42.68;99464.28;4489269;31;35255;-63
2023/04/29 07:28:43;;;;;;;8.82;4.07;;;;;;;15.50;43.41;99460.94;4490916;31;35704;-62
2023/04/29 07:31:11;;;;;;;4.78;2.30;;;;;;;15.52;43.22;99466.19;4483638;31;33702;-63
2023/04/29 07:33:41;;;;;;;4.18;3.08;;;;;;;15.87;43.14;99459.97;4484396;31;32386;-61
2023/04/29 07:36:10;;;;;;;5.25;3.20;;;;;;;16.27;42.07;99461.28;4492750;31;33976;-62
2023/04/29 07:38:39;;;;;;;4.10;2.72;;;;;;;15.78;42.42;99455.50;4489004;31;34762;-62
2023/04/29 07:41:06;;;;;;;6.95;3.83;;;;;;;16.16;41.68;99454.31;4493835;31;33377;-61
2023/04/29 07:43:34;;;;;;;6.00;3.62;;;;;;;15.84;42.68;99453.03;4488367;31;34581;-61
2023/04/29 07:46:01;;;;;;;6.55;4.28;;;;;;;16.02;42.29;99450.34;4483522;31;34590;-63
2023/04/29 07:48:29;;;;;;;5.68;2.90;;;;;;;16.62;41.38;99444.13;4487017;31;33753;-63
2023/04/29 07:50:56;;;;;;;6.32;3.42;;;;;;;16.59;41.13;99446.31;4484656;31;34089;-61
2023/04/29 07:53:24;;;;;;;6.40;3.30;;;;;;;16.41;42.21;99466.13;4488538;31;33678;-62
2023/04/29 07:55:51;;;;;;;4.53;2.90;;;;;;;16.75;41.28;99458.06;4491896;31;33976;-61
2023/04/29 07:58:19;;;;;;;9.50;4.10;;;;;;;16.56;42.55;99466.38;4488917;31;34218;-62
2023/04/29 08:00:47;;;;;;;5.85;3.65;;;;;;;16.61;41.12;99472.16;4490825;31;33476;-62
2023/04/29 08:03:15;;;;;;;9.38;5.18;;;;;;;16.79;39.98;99471.25;4489511;31;33508;-62
2023/04/29 08:05:43;;;;;;;6.75;3.22;;;;;;;17.61;39.33;99461.56;4488254;31;33957;-63
2023/04/29 08:08:14;;;;;;;4.32;2.65;;;;;;;17.53;39.60;99465.13;4491377;31;34106;-62
2023/04/29 08:10:43;;;;;;;4.22;2.78;;;;;;;17.27;38.06;99465.22;4491624;31;33386;-62
2023/04/29 08:13:10;;;;;;;5.65;2.92;;;;;;;17.37;38.75;99465.09;4489382;31;33998;-63
2023/04/29 08:15:39;;;;;;;5.70;3.17;;;;;;;16.68;39.38;99469.66;4490953;31;33687;-61
2023/04/29 08:18:06;;;;;;;3.58;2.55;;;;;;;16.20;40.73;99471.03;4494319;31;34206;-62
2023/04/29 08:20:34;;;;;;;5.37;2.53;;;;;;;16.53;39.94;99469.41;4490659;31;34343;-63
2023/04/29 08:23:01;;;;;;;5.00;3.25;;;;;;;16.45;39.65;99462.09;4495532;31;32564;-61
2023/04/29 08:25:29;;;;;;;9.55;5.15;;;;;;;17.31;38.79;99473.84;4491963;31;33737;-60
2023/04/29 08:27:57;;;;;;;7.30;2.85;;;;;;;16.59;39.42;99462.50;4485454;31;33849;-63
2023/04/29 08:30:24;;;;;;;5.40;3.15;;;;;;;17.07;38.94;99452.97;4492871;31;33765;-61
2023/04/29 08:32:52;;;;;;;8.40;4.65;;;;;;;16.59;39.15;99467.91;4488226;31;34962;-61
2023/04/29 08:35:19;;;;;;;4.87;3.22;;;;;;;17.58;37.78;99459.19;4481883;31;33891;-62
2023/04/29 08:37:47;;;;;;;4.85;3.45;;;;;;;17.42;39.06;99462.72;4487579;31;33768;-62
2023/04/29 08:40:15;;;;;;;9.70;3.35;;;;;;;17.50;38.02;99459.19;4498619;31;31958;-63
2023/04/29 08:42:44;;;;;;;7.10;3.58;;;;;;;17.56;38.28;99461.22;4492182;31;33649;-63
2023/04/29 08:45:18;;;;;;;6.60;2.97;;;;;;;17.18;37.94;99464.34;4482572;31;34153;-63
2023/04/29 08:47:46;;;;;;;5.28;2.90;;;;;;;18.00;36.64;99460.97;4483278;31;34149;-61
2023/04/29 08:50:14;;;;;;;4.25;2.65;;;;;;;17.95;36.53;99455.22;4492637;31;33376;-62
2023/04/29 08:52:41;;;;;;;4.45;2.55;;;;;;;18.07;35.98;99470.09;4491975;31;34225;-62
2023/04/29 08:55:09;;;;;;;3.62;2.60;;;;;;;18.07;36.43;99465.53;4494160;31;33820;-63
2023/04/29 08:57:38;;;;;;;8.23;2.40;;;;;;;18.07;36.52;99476.38;4491005;31;34203;-62
2023/04/29 09:00:07;;;;;;;6.72;3.35;;;;;;;18.50;35.69;99474.28;4482737;31;33523;-62
2023/04/29 09:02:42;;;;;;;6.30;3.72;;;;;;;17.63;36.74;99479.34;4495639;31;33607;-62
2023/04/29 09:05:10;;;;;;;6.15;3.12;;;;;;;17.68;36.75;99481.53;4489041;31;35280;-63
2023/04/29 09:07:40;;;;;;;7.07;3.22;;;;;;;18.37;36.03;99468.56;4485618;31;34991;-62
2023/04/29 09:10:08;;;;;;;5.10;3.28;;;;;;;18.35;35.29;99476.00;4495572;31;33105;-63
2023/04/29 09:12:36;;;;;;;5.87;3.05;;;;;;;18.29;35.18;99473.97;4492677;31;33887;-63
2023/04/29 09:15:04;;;;;;;11.40;3.95;;;;;;;17.68;37.43;99481.53;4486916;31;33710;-61
2023/04/29 09:17:44;;;;;;;6.75;4.50;;;;;;;18.12;36.39;99483.97;4486370;31;34126;-62
2023/04/29 09:20:18;;;;;;;7.20;3.15;;;;;;;17.28;37.30;99474.19;4494273;31;33629;-63
2023/04/29 09:22:57;;;;;;;4.40;2.00;;;;;;;17.99;36.81;99480.94;4499361;31;34659;-62
2023/04/29 09:25:26;;;;;;;5.10;2.90;;;;;;;18.67;35.28;99474.25;4486710;31;33972;-61
2023/04/29 09:27:54;;;;;;;7.10;3.35;;;;;;;18.87;35.10;99475.56;4489335;31;33825;-62
2023/04/29 09:30:22;;;;;;;5.20;3.00;;;;;;;18.25;35.82;99476.19;4500562;31;33502;-63
2023/04/29 09:33:07;;;;;;;5.15;3.05;;;;;;;18.23;36.26;99480.06;4490518;31;33836;-61
2023/04/29 09:35:35;;;;;;;6.97;3.22;;;;;;;18.87;35.19;99483.72;4491946;31;33552;-62
2023/04/29 09:38:13;;;;;;;4.65;3.12;;;;;;;18.08;35.32;99485.34;4492491;31;34277;-61
2023/04/29 09:40:42;;;;;;;6.10;2.87;;;;;;;18.07;35.71;99478.22;4500065;31;32324;-61
2023/04/29 09:43:25;;;;;;;5.03;2.65;;;;;;;18.01;35.62;99481.59;4493851;31;34033;-61
2023/04/29 09:45:52;;;;;;;11.00;4.15;;;;;;;18.64;34.31;99470.03;4483922;31;34865;-61
2023/04/29 09:48:20;;;;;;;7.43;3.25;;;;;;;18.50;34.35;99474.28;4486263;31;32714;-62
2023/04/29 09:51:00;;;;;;;6.70;3.67;;;;;;;17.85;35.12;99472.47;4495914;31;33428;-62
2023/04/29 09:53:29;;;;;;;6.55;3.33;;;;;;;18.71;34.10;99468.28;4493393;31;35013;-61
2023/04/29 09:56:01;;;;;;;5.32;2.72;;;;;;;18.33;34.62;99469.91;4486580;31;33762;-62
2023/04/29 09:58:32;;;;;;;5.62;2.78;;;;;;;18.76;33.92;99468.66;4491558;31;35192;-61
2023/04/29 10:01:01;;;;;;;8.43;3.30;;;;;;;18.71;33.23;99470.16;4493492;31;33468;-62
2023/04/29 10:03:32;;;;;;;7.87;2.80;;;;;;;18.56;33.70;99464.62;4485675;31;35876;-62
2023/04/29 10:06:01;;;;;;;10.98;3.25;;;;;;;18.97;32.50;99470.81;4485368;31;32556;-62
2023/04/29 10:08:29;;;;;;;5.82;2.85;;;;;;;18.75;33.24;99461.56;4489559;31;35421;-61
2023/04/29 10:11:04;;;;;;;10.15;3.30;;;;;;;18.69;33.33;99466.81;4494914;31;34224;-62
2023/04/29 10:13:34;;;;;;;8.57;3.20;;;;;;;18.53;33.52;99465.81;4496724;31;33523;-62
2023/04/29 10:16:20;;;;;;;10.40;3.72;;;;;;;18.72;33.55;99464.62;4491345;31;34016;-61
2023/04/29 10:18:59;;;;;;;4.55;2.85;;;;;;;18.14;34.26;99469.25;4484196;31;34374;-61
2023/04/29 10:21:31;;;;;;;5.00;2.97;;;;;;;19.05;33.70;99459.06;4489681;31;33401;-61
2023/04/29 10:24:01;;;;;;;6.12;3.40;;;;;;;18.51;34.64;99458.88;4495466;31;33245;-62
2023/04/29 10:26:30;;;;;;;4.28;2.28;;;;;;;18.69;34.66;99469.53;4489580;31;33420;-61
2023/04/29 10:28:59;;;;;;;5.18;2.72;;;;;;;19.37;33.40;99463.50;4490512;31;34627;-61
2023/04/29 10:31:26;;;;;;;8.02;3.28;;;;;;;19.23;33.30;99456.09;4492655;31;34827;-62
2023/04/29 10:33:56;;;;;;;8.52;4.30;;;;;;;19.00;33.38;99450.59;4490441;31;35005;-61
2023/04/29 10:36:25;;;;;;;4.28;2.30;;;;;;;18.81;34.66;99450.03;4492612;31;34042;-61
2023/04/29 10:38:54;;;;;;;4.87;3.15;;;;;;;19.47;34.13;99439.69;4496759;31;34249;-61
2023/04/29 10:41:25;;;;;;;5.78;3.15;;;;;;;19.20;33.75;99434.78;4487047;31;34380;-63
2023/04/29 10:43:54;;;;;;;5.95;2.33;;;;;;;18.88;35.07;99430.34;4493473;31;35494;-62
2023/04/29 10:46:25;;;;;;;4.35;2.55;;;;;;;19.17;34.91;99435.97;4482176;31;33808;-63
2023/04/29 10:49:02;;;;;;;3.75;2.22;;;;;;;19.73;33.81;99425.78;4489770;31;34038;-62
2023/04/29 10:51:32;;;;;;;6.57;2.85;;;;;;;19.72;32.95;99421.37;4488791;31;34143;-62
2023/04/29 10:54:03;;;;;;;5.45;3.33;;;;;;;20.57;30.58;99411.28;4489001;31;34663;-62
2023/04/29 10:56:43;;;;;;;6.50;3.37;;;;;;;20.69;31.02;99407.91;4493564;31;34096;-62
2023/04/29 10:59:13;;;;;;;5.28;2.90;;;;;;;19.61;33.06;99410.06;4483003;32;33885;-61
2023/04/29 11:01:45;;;;;;;5.70;3.03;;;;;;;20.38;32.46;99399.87;4488548;31;33567;-62
2023/04/29 11:04:14;;;;;;;8.35;2.90;;;;;;;20.58;31.24;99402.09;4489079;31;33583;-61
2023/04/29 11:06:46;;;;;;;6.75;3.28;;;;;;;20.60;31.67;99395.44;4485130;31;34585;-62
2023/04/29 11:09:18;;;;;;;5.87;3.17;;;;;;;20.91;32.03;99392.50;4497831;31;33374;-62
2023/04/29 11:11:53;;;;;;;10.25;4.12;;;;;;;20.77;30.79;99389.78;4492037;31;33338;-61
2023/04/29 11:14:26;;;;;;;4.95;2.92;;;;;;;20.25;31.66;99395.09;4491642;31;33627;-62
2023/04/29 11:17:00;;;;;;;7.78;3.92;;;;;;;20.04;32.63;99394.97;4498353;31;33653;-62
2023/04/29 11:19:33;;;;;;;6.35;3.35;;;;;;;20.69;32.06;99394.31;4497433;31;33986;-62
2023/04/29 11:22:27;;;;;;;7.37;3.78;;;;;;;21.03;31.40;99387.44;4485807;31;33309;-61
2023/04/29 11:24:56;;;;;;;9.55;4.35;;;;;;;21.08;32.46;99382.22;4491935;31;32605;-62
2023/04/29 11:27:35;;;;;;;5.30;3.05;;;;;;;19.68;34.45;99378.50;4491666;31;33872;-62
2023/04/29 11:30:04;;;;;;;6.80;3.85;;;;;;;20.61;32.73;99388.97;4497015;31;34922;-62
2023/04/29 11:32:35;;;;;;;6.20;3.87;;;;;;;20.21;33.75;99385.63;4489386;31;34375;-62
2023/04/29 11:35:11;;;;;;;5.25;3.17;;;;;;;20.55;32.72;99383.44;4491508;31;32664;-61
2023/04/29 11:37:40;;;;;;;7.10;3.53;;;;;;;21.15;32.66;99377.75;4488439;31;33840;-61
2023/04/29 11:40:08;;;;;;;6.00;3.62;;;;;;;20.98;32.65;99384.41;4487218;31;34043;-61
2023/04/29 11:42:46;;;;;;;8.90;3.92;;;;;;;21.03;32.24;99384.72;4489655;31;34359;-61